createdAt,value
2024-02-05T00:00:53.745Z,11.73
2024-02-05T00:03:23.001Z,11.70
2024-02-05T00:05:50.790Z,11.76
2024-02-05T00:08:18.583Z,11.79
2024-02-05T00:10:47.395Z,11.80
2024-02-05T00:13:15.751Z,11.81
2024-02-05T00:15:43.879Z,11.81
2024-02-05T00:18:11.980Z,11.80
2024-02-05T00:20:41.222Z,11.80
2024-02-05T00:23:09.092Z,11.81
2024-02-05T00:25:38.863Z,11.86
2024-02-05T00:28:07.013Z,11.85
2024-02-05T00:30:34.859Z,11.84
2024-02-05T00:33:02.902Z,11.84
2024-02-05T00:35:33.062Z,11.84
2024-02-05T00:38:02.707Z,11.84
2024-02-05T00:40:30.795Z,11.84
2024-02-05T00:42:58.632Z,11.83
2024-02-05T00:45:26.629Z,11.87
2024-02-05T00:47:54.650Z,11.86
2024-02-05T00:50:22.553Z,11.89
2024-02-05T00:52:50.306Z,11.90
2024-02-05T00:55:19.718Z,11.89
2024-02-05T00:57:48.398Z,11.91
2024-02-05T01:00:17.298Z,11.91
2024-02-05T01:02:45.046Z,11.93
2024-02-05T01:05:13.093Z,11.91
2024-02-05T01:07:41.108Z,11.91
2024-02-05T01:10:11.815Z,11.92
2024-02-05T01:12:41.366Z,11.93
2024-02-05T01:15:09.686Z,11.92
2024-02-05T01:17:37.514Z,11.91
2024-02-05T01:20:11.659Z,11.90
2024-02-05T01:22:40.283Z,11.91
2024-02-05T01:25:09.421Z,11.92
2024-02-05T01:27:37.508Z,11.91
2024-02-05T01:30:07.527Z,11.91
2024-02-05T01:32:35.517Z,11.90
2024-02-05T01:35:04.154Z,11.90
2024-02-05T01:37:32.271Z,11.90
2024-02-05T01:40:00.112Z,11.89
2024-02-05T01:42:28.263Z,11.87
2024-02-05T01:44:56.015Z,11.92
2024-02-05T01:47:26.949Z,11.85
2024-02-05T01:49:54.950Z,11.91
2024-02-05T01:52:22.852Z,11.91
2024-02-05T01:54:51.463Z,11.88
2024-02-05T01:57:19.400Z,11.90
2024-02-05T01:59:47.389Z,11.86
2024-02-05T02:02:15.406Z,11.87
2024-02-05T02:04:44.754Z,11.87
2024-02-05T02:07:13.111Z,11.88
2024-02-05T02:09:41.136Z,11.89
2024-02-05T02:12:09.934Z,11.88
2024-02-05T02:14:38.649Z,11.89
2024-02-05T02:17:06.712Z,11.90
2024-02-05T02:19:48.431Z,11.88
2024-02-05T02:22:22.491Z,11.85
2024-02-05T02:24:51.853Z,11.87
2024-02-05T02:27:19.661Z,11.85
2024-02-05T02:29:47.603Z,11.87
2024-02-05T02:32:22.386Z,11.85
2024-02-05T02:34:50.792Z,11.84
2024-02-05T02:37:20.029Z,11.83
2024-02-05T02:39:53.249Z,11.84
2024-02-05T02:42:21.654Z,11.84
2024-02-05T02:44:49.866Z,11.84
2024-02-05T02:47:17.769Z,11.83
2024-02-05T02:49:45.647Z,11.83
2024-02-05T02:52:13.548Z,11.84
2024-02-05T02:54:41.410Z,11.85
2024-02-05T02:57:10.686Z,11.83
2024-02-05T02:59:38.577Z,11.83
2024-02-05T03:02:06.578Z,11.83
2024-02-05T03:04:34.405Z,11.83
2024-02-05T03:07:02.281Z,11.84
2024-02-05T03:09:30.144Z,11.83
2024-02-05T03:11:57.908Z,11.82
2024-02-05T03:14:27.298Z,11.84
2024-02-05T03:16:55.220Z,11.85
2024-02-05T03:19:23.154Z,11.85
2024-02-05T03:21:51.436Z,11.82
2024-02-05T03:24:19.258Z,11.82
2024-02-05T03:26:47.073Z,11.82
2024-02-05T03:29:15.140Z,11.83
2024-02-05T03:31:44.610Z,11.82
2024-02-05T03:34:12.951Z,11.79
2024-02-05T03:36:40.930Z,11.76
2024-02-05T03:39:08.868Z,11.74
2024-02-05T03:41:36.669Z,11.74
2024-02-05T03:44:04.561Z,11.73
2024-02-05T03:46:32.369Z,11.71
2024-02-05T03:49:01.663Z,11.69
2024-02-05T03:51:29.436Z,11.69
2024-02-05T03:53:57.220Z,11.67
2024-02-05T03:56:25.022Z,11.64
2024-02-05T03:58:52.786Z,11.63
2024-02-05T04:01:20.633Z,11.63
2024-02-05T04:03:48.475Z,11.58
2024-02-05T04:06:17.934Z,11.62
2024-02-05T04:08:45.677Z,11.60
2024-02-05T04:11:13.445Z,11.61
2024-02-05T04:13:41.169Z,11.58
2024-02-05T04:16:15.197Z,11.58
2024-02-05T04:18:42.958Z,11.55
2024-02-05T04:21:10.759Z,11.52
2024-02-05T04:23:40.310Z,11.55
2024-02-05T04:26:15.884Z,11.58
2024-02-05T04:28:43.691Z,11.56
2024-02-05T04:31:11.818Z,11.56
2024-02-05T04:33:39.935Z,11.54
2024-02-05T04:36:11.933Z,11.50
2024-02-05T04:38:41.442Z,11.48
2024-02-05T04:41:10.763Z,11.49
2024-02-05T04:43:40.159Z,11.49
2024-02-05T04:46:10.210Z,11.52
2024-02-05T04:48:38.231Z,11.54
2024-02-05T04:51:11.582Z,11.54
2024-02-05T04:53:39.406Z,11.55
2024-02-05T04:56:09.218Z,11.56
2024-02-05T04:58:37.164Z,11.56
2024-02-05T05:01:07.640Z,11.55
2024-02-05T05:03:38.263Z,11.52
2024-02-05T05:06:06.434Z,11.48
2024-02-05T05:08:35.283Z,11.52
2024-02-05T05:11:03.209Z,11.52
2024-02-05T05:13:32.455Z,11.52
2024-02-05T05:16:02.993Z,11.50
2024-02-05T05:18:30.842Z,11.49
2024-02-05T05:20:58.701Z,11.49
2024-02-05T05:23:26.523Z,11.50
2024-02-05T05:25:54.251Z,11.51
2024-02-05T05:28:22.116Z,11.49
2024-02-05T05:30:51.472Z,11.53
2024-02-05T05:33:19.286Z,11.43
2024-02-05T05:35:47.052Z,11.44
2024-02-05T05:38:14.920Z,11.43
2024-02-05T05:40:42.739Z,11.39
2024-02-05T05:43:10.567Z,11.39
2024-02-05T05:45:38.496Z,11.35
2024-02-05T05:48:08.884Z,11.35
2024-02-05T05:50:36.697Z,11.35
2024-02-05T05:53:04.600Z,11.33
2024-02-05T05:55:32.444Z,11.32
2024-02-05T05:58:00.226Z,11.31
2024-02-05T06:00:28.239Z,11.30
2024-02-05T06:02:57.236Z,11.33
2024-02-05T06:05:26.591Z,11.34
2024-02-05T06:07:54.422Z,11.28
2024-02-05T06:10:22.410Z,11.31
2024-02-05T06:12:50.369Z,11.32
2024-02-05T06:15:18.133Z,11.35
2024-02-05T06:17:45.896Z,11.33
2024-02-05T06:20:16.473Z,11.30
2024-02-05T06:22:47.501Z,11.28
2024-02-05T06:25:15.396Z,11.26
2024-02-05T06:27:43.283Z,11.26
2024-02-05T06:30:12.238Z,11.28
2024-02-05T06:32:40.198Z,11.28
2024-02-05T06:35:08.985Z,11.27
2024-02-05T06:37:37.000Z,11.25
2024-02-05T06:40:07.705Z,11.22
2024-02-05T06:42:35.580Z,11.19
2024-02-05T06:45:05.178Z,11.17
2024-02-05T06:47:33.198Z,11.14
2024-02-05T06:50:01.156Z,11.12
2024-02-05T06:52:29.020Z,11.11
2024-02-05T06:54:56.873Z,11.10
2024-02-05T06:57:25.988Z,11.09
2024-02-05T06:59:53.686Z,11.10
2024-02-05T07:02:21.752Z,11.06
2024-02-05T07:04:49.869Z,11.06
2024-02-05T07:07:18.053Z,11.03
2024-02-05T07:09:45.899Z,10.98
2024-02-05T07:12:13.667Z,11.04
2024-02-05T07:14:42.850Z,11.04
2024-02-05T07:17:10.690Z,11.05
2024-02-05T07:19:38.530Z,11.05
2024-02-05T07:22:06.531Z,11.05
2024-02-05T07:24:34.295Z,11.04
2024-02-05T07:27:02.384Z,11.02
2024-02-05T07:29:30.118Z,11.02
2024-02-05T07:31:59.412Z,10.99
2024-02-05T07:34:27.234Z,10.98
2024-02-05T07:36:55.064Z,10.99
2024-02-05T07:39:22.956Z,10.99
2024-02-05T07:41:50.630Z,10.99
2024-02-05T07:44:18.557Z,10.99
2024-02-05T07:46:46.258Z,10.93
2024-02-05T07:49:15.519Z,10.97
2024-02-05T07:51:46.774Z,10.95
2024-02-05T07:54:14.695Z,10.96
2024-02-05T07:56:42.988Z,10.95
2024-02-05T07:59:10.785Z,10.96
2024-02-05T08:01:38.677Z,10.95
2024-02-05T08:04:06.772Z,10.95
2024-02-05T08:06:36.157Z,10.98
2024-02-05T08:09:05.564Z,10.99
2024-02-05T08:11:33.518Z,10.98
2024-02-05T08:14:01.460Z,10.97
2024-02-05T08:16:29.356Z,10.99
2024-02-05T08:18:57.252Z,10.99
2024-02-05T08:21:25.171Z,10.97
2024-02-05T08:23:54.398Z,10.99
2024-02-05T08:26:22.211Z,11.01
2024-02-05T08:28:51.554Z,11.03
2024-02-05T08:31:21.113Z,11.02
2024-02-05T08:33:49.189Z,11.00
2024-02-05T08:36:18.148Z,10.98
2024-02-05T08:38:45.845Z,10.98
2024-02-05T08:41:15.119Z,10.99
2024-02-05T08:43:43.027Z,11.00
2024-02-05T08:46:10.939Z,11.02
2024-02-05T08:48:41.524Z,11.00
2024-02-05T08:51:09.504Z,11.00
2024-02-05T08:53:38.519Z,11.00
2024-02-05T08:56:07.402Z,11.00
2024-02-05T08:58:36.698Z,10.99
2024-02-05T09:01:05.234Z,10.96
2024-02-05T09:03:33.288Z,10.99
2024-02-05T09:06:01.884Z,10.97
2024-02-05T09:08:29.660Z,10.98
2024-02-05T09:10:57.528Z,10.97
2024-02-05T09:13:25.520Z,11.01
2024-02-05T09:15:54.740Z,10.99
2024-02-05T09:18:23.631Z,11.01
2024-02-05T09:20:51.475Z,11.01
2024-02-05T09:23:19.300Z,11.01
2024-02-05T09:25:47.428Z,11.02
2024-02-05T09:28:15.296Z,10.98
2024-02-05T09:30:43.989Z,10.97
2024-02-05T09:33:13.570Z,10.99
2024-02-05T09:35:41.517Z,11.00
2024-02-05T09:38:09.358Z,11.01
2024-02-05T09:40:37.763Z,11.03
2024-02-05T09:43:06.518Z,11.02
2024-02-05T09:45:37.140Z,11.06
2024-02-05T09:48:05.561Z,11.11
2024-02-05T09:50:37.748Z,11.12
2024-02-05T09:53:05.952Z,11.12
2024-02-05T09:55:33.937Z,11.11
2024-02-05T09:58:01.769Z,11.07
2024-02-05T10:00:29.709Z,11.08
2024-02-05T10:02:57.547Z,11.10
2024-02-05T10:05:26.115Z,11.10
2024-02-05T10:07:56.624Z,11.09
2024-02-05T10:10:25.022Z,11.06
2024-02-05T10:12:53.377Z,11.07
2024-02-05T10:15:21.613Z,11.10
2024-02-05T10:17:49.903Z,11.12
2024-02-05T10:20:18.579Z,11.10
2024-02-05T10:22:47.551Z,11.08
2024-02-05T10:25:17.768Z,11.09
2024-02-05T10:27:45.779Z,11.12
2024-02-05T10:30:18.148Z,11.10
2024-02-05T10:32:46.230Z,11.11
2024-02-05T10:35:18.083Z,11.09
2024-02-05T10:37:45.862Z,11.11
2024-02-05T10:40:14.176Z,11.13
2024-02-05T10:42:43.654Z,11.12
2024-02-05T10:45:12.663Z,11.14
2024-02-05T10:47:40.857Z,11.17
2024-02-05T10:50:11.842Z,11.18
2024-02-05T10:52:42.239Z,11.13
2024-02-05T10:55:14.030Z,11.23
2024-02-05T10:57:45.371Z,11.25
2024-02-05T11:00:14.739Z,11.26
2024-02-05T11:02:44.095Z,11.26
2024-02-05T11:05:13.390Z,11.17
2024-02-05T11:07:48.632Z,11.14
2024-02-05T11:10:17.497Z,11.14
2024-02-05T11:12:48.492Z,11.13
2024-02-05T11:15:23.274Z,11.14
2024-02-05T11:17:52.239Z,11.09
2024-02-05T11:20:21.076Z,11.12
2024-02-05T11:22:51.323Z,11.12
2024-02-05T11:25:19.410Z,11.12
2024-02-05T11:27:51.818Z,11.12
2024-02-05T11:30:19.911Z,11.14
2024-02-05T11:32:47.815Z,11.11
2024-02-05T11:35:16.222Z,11.12
2024-02-05T11:37:45.351Z,11.13
2024-02-05T11:40:19.948Z,11.22
2024-02-05T11:42:49.208Z,11.25
2024-02-05T11:45:17.210Z,11.25
2024-02-05T11:47:45.054Z,11.25
2024-02-05T11:50:13.092Z,11.23
2024-02-05T11:52:41.128Z,11.23
2024-02-05T11:55:09.744Z,11.28
2024-02-05T11:57:37.553Z,11.26
2024-02-05T12:00:08.356Z,11.28
2024-02-05T12:02:38.878Z,11.24
2024-02-05T12:05:08.651Z,11.30
2024-02-05T12:07:36.578Z,11.32
2024-02-05T12:10:05.698Z,11.33
2024-02-05T12:12:33.801Z,11.31
2024-02-05T12:15:01.567Z,11.32
2024-02-05T12:17:32.805Z,11.34
2024-02-05T12:20:01.001Z,11.29
2024-02-05T12:22:29.105Z,11.30
2024-02-05T12:24:57.330Z,11.33
2024-02-05T12:27:26.649Z,11.36
2024-02-05T12:30:06.190Z,11.35
2024-02-05T12:32:42.530Z,11.40
2024-02-05T12:35:15.980Z,11.36
2024-02-05T12:37:44.193Z,11.39
2024-02-05T12:40:13.165Z,11.40
2024-02-05T12:42:41.082Z,11.40
2024-02-05T12:45:12.565Z,11.43
2024-02-05T12:47:45.449Z,11.46
2024-02-05T12:50:13.602Z,11.46
2024-02-05T12:52:41.813Z,11.43
2024-02-05T12:55:10.434Z,11.51
2024-02-05T12:57:38.684Z,11.48
2024-02-05T13:00:09.287Z,11.41
2024-02-05T13:02:37.490Z,11.45
2024-02-05T13:05:09.138Z,11.46
2024-02-05T13:07:38.082Z,11.43
2024-02-05T13:10:08.771Z,11.46
2024-02-05T13:12:36.661Z,11.46
2024-02-05T13:15:05.683Z,11.47
2024-02-05T13:17:33.769Z,11.48
2024-02-05T13:20:02.169Z,11.50
2024-02-05T13:22:31.474Z,11.52
2024-02-05T13:24:59.304Z,11.52
2024-02-05T13:27:27.133Z,11.48
2024-02-05T13:29:54.991Z,11.48
2024-02-05T13:32:23.029Z,11.52
2024-02-05T13:34:50.961Z,11.48
2024-02-05T13:37:18.807Z,11.54
2024-02-05T13:39:48.033Z,11.56
2024-02-05T13:42:15.824Z,11.58
2024-02-05T13:44:44.828Z,11.60
2024-02-05T13:47:12.661Z,11.62
2024-02-05T13:49:40.578Z,11.63
2024-02-05T13:52:08.694Z,11.64
2024-02-05T13:54:36.585Z,11.63
2024-02-05T13:57:05.964Z,11.63
2024-02-05T13:59:33.818Z,11.63
2024-02-05T14:02:01.746Z,11.61
2024-02-05T14:04:30.572Z,11.66
2024-02-05T14:06:59.114Z,11.69
2024-02-05T14:09:27.066Z,11.68
2024-02-05T14:11:54.872Z,11.75
2024-02-05T14:14:25.890Z,11.75
2024-02-05T14:16:53.760Z,11.75
2024-02-05T14:19:21.696Z,11.75
2024-02-05T14:21:50.134Z,11.74
2024-02-05T14:24:18.002Z,11.75
2024-02-05T14:26:45.719Z,11.76
2024-02-05T14:29:13.523Z,11.75
2024-02-05T14:31:42.717Z,11.77
2024-02-05T14:34:11.082Z,11.76
2024-02-05T14:36:39.016Z,11.76
2024-02-05T14:39:07.633Z,11.76
2024-02-05T14:41:35.417Z,11.78
2024-02-05T14:44:04.389Z,11.80
2024-02-05T14:46:32.457Z,11.80
2024-02-05T14:49:01.770Z,11.81
2024-02-05T14:51:31.049Z,11.81
2024-02-05T14:53:58.936Z,11.78
2024-02-05T14:56:27.436Z,11.78
2024-02-05T14:58:55.158Z,11.78
2024-02-05T15:01:23.039Z,11.78
2024-02-05T15:03:53.279Z,11.82
2024-02-05T15:06:23.625Z,11.81
2024-02-05T15:08:51.402Z,11.82
2024-02-05T15:11:19.169Z,11.82
2024-02-05T15:13:50.168Z,11.84
2024-02-05T15:16:18.540Z,11.84
2024-02-05T15:18:46.494Z,11.86
2024-02-05T15:21:17.773Z,11.83
2024-02-05T15:23:47.346Z,11.82
2024-02-05T15:26:15.294Z,11.83
2024-02-05T15:28:43.184Z,11.84
2024-02-05T15:31:12.338Z,11.82
2024-02-05T15:33:40.310Z,11.80
2024-02-05T15:36:12.884Z,11.79
2024-02-05T15:38:40.605Z,11.79
2024-02-05T15:41:09.871Z,11.78
2024-02-05T15:43:37.822Z,11.78
2024-02-05T15:46:06.083Z,11.76
2024-02-05T15:48:35.027Z,11.76
2024-02-05T15:51:03.331Z,11.76
2024-02-05T15:53:31.072Z,11.74
2024-02-05T15:55:59.106Z,11.69
2024-02-05T15:58:28.460Z,11.69
2024-02-05T16:00:56.979Z,11.64
2024-02-05T16:03:24.816Z,11.62
2024-02-05T16:05:52.726Z,11.60
2024-02-05T16:08:20.634Z,11.61
2024-02-05T16:10:48.703Z,11.58
2024-02-05T16:13:16.587Z,11.58
2024-02-05T16:15:45.839Z,11.59
2024-02-05T16:18:14.307Z,11.56
2024-02-05T16:20:42.244Z,11.57
2024-02-05T16:23:10.202Z,11.58
2024-02-05T16:25:38.177Z,11.57
2024-02-05T16:28:07.167Z,11.57
2024-02-05T16:30:35.189Z,11.56
2024-02-05T16:33:04.760Z,11.56
2024-02-05T16:35:32.674Z,11.52
2024-02-05T16:38:00.474Z,11.53
2024-02-05T16:40:28.361Z,11.52
2024-02-05T16:42:56.283Z,11.54
2024-02-05T16:45:24.061Z,11.52
2024-02-05T16:47:51.918Z,11.52
2024-02-05T16:50:21.310Z,11.51
2024-02-05T16:52:49.541Z,11.49
2024-02-05T16:55:17.516Z,11.48
2024-02-05T16:57:45.502Z,11.46
2024-02-05T17:00:14.320Z,11.47
2024-02-05T17:02:42.124Z,11.45
2024-02-05T17:05:10.366Z,11.44
2024-02-05T17:07:45.329Z,11.44
2024-02-05T17:10:13.476Z,11.39
2024-02-05T17:12:42.330Z,11.40
2024-02-05T17:15:10.506Z,11.40
2024-02-05T17:17:38.939Z,11.40
2024-02-05T17:20:08.108Z,11.40
2024-02-05T17:22:36.011Z,11.37
2024-02-05T17:25:06.010Z,11.32
2024-02-05T17:27:33.986Z,11.33
2024-02-05T17:30:03.007Z,11.31
2024-02-05T17:32:31.241Z,11.31
2024-02-05T17:35:01.259Z,11.34
2024-02-05T17:37:29.383Z,11.34
2024-02-05T17:39:57.333Z,11.36
2024-02-05T17:42:28.859Z,11.34
2024-02-05T17:44:56.752Z,11.31
2024-02-05T17:47:24.525Z,11.30
2024-02-05T17:49:52.422Z,11.30
2024-02-05T17:52:20.393Z,11.31
2024-02-05T17:54:48.238Z,11.29
2024-02-05T17:57:15.982Z,11.28
2024-02-05T17:59:45.156Z,11.30
2024-02-05T18:02:13.119Z,11.27
2024-02-05T18:04:41.088Z,11.27
2024-02-05T18:07:09.068Z,11.26
2024-02-05T18:09:37.041Z,11.21
2024-02-05T18:12:07.464Z,11.19
2024-02-05T18:14:36.850Z,11.18
2024-02-05T18:17:06.394Z,11.18
2024-02-05T18:19:34.267Z,11.11
2024-02-05T18:22:02.112Z,11.14
2024-02-05T18:24:37.841Z,11.12
2024-02-05T18:27:13.310Z,11.08
2024-02-05T18:29:41.181Z,11.05
2024-02-05T18:32:10.674Z,10.96
2024-02-05T18:34:42.408Z,10.99
2024-02-05T18:37:12.766Z,10.97
2024-02-05T18:39:40.711Z,10.98
2024-02-05T18:42:09.315Z,10.95
2024-02-05T18:44:37.406Z,10.90
2024-02-05T18:47:05.498Z,10.90
2024-02-05T18:49:34.930Z,10.91
2024-02-05T18:52:05.812Z,10.92
2024-02-05T18:54:36.017Z,10.87
2024-02-05T18:57:03.877Z,10.89
2024-02-05T18:59:32.199Z,10.87
2024-02-05T19:02:00.271Z,10.83
2024-02-05T19:04:28.350Z,10.80
2024-02-05T19:06:57.515Z,10.75
2024-02-05T19:09:26.833Z,10.74
2024-02-05T19:11:55.983Z,10.70
2024-02-05T19:14:23.773Z,10.69
2024-02-05T19:16:51.892Z,10.66
2024-02-05T19:19:20.169Z,10.62
2024-02-05T19:21:48.297Z,10.58
2024-02-05T19:24:17.695Z,10.50
2024-02-05T19:26:46.925Z,10.45
2024-02-05T19:29:16.892Z,10.44
2024-02-05T19:31:45.598Z,10.43
2024-02-05T19:34:14.587Z,10.45
2024-02-05T19:36:42.491Z,10.40
2024-02-05T19:39:10.854Z,10.34
2024-02-05T19:41:40.211Z,10.37
2024-02-05T19:44:08.098Z,10.35
2024-02-05T19:46:36.401Z,10.29
2024-02-05T19:49:04.526Z,10.25
2024-02-05T19:51:32.607Z,10.26
2024-02-05T19:54:00.423Z,10.24
2024-02-05T19:56:28.277Z,10.23
2024-02-05T19:58:57.536Z,10.14
2024-02-05T20:01:25.467Z,10.16
2024-02-05T20:03:53.627Z,10.18
2024-02-05T20:06:21.658Z,10.16
2024-02-05T20:08:49.585Z,10.16
2024-02-05T20:11:17.407Z,10.13
2024-02-05T20:13:45.233Z,10.12
2024-02-05T20:16:14.344Z,10.10
2024-02-05T20:18:43.192Z,10.08
2024-02-05T20:21:12.764Z,10.06
2024-02-05T20:23:40.561Z,10.11
2024-02-05T20:26:08.429Z,10.11
2024-02-05T20:28:36.373Z,10.12
2024-02-05T20:31:04.318Z,10.12
2024-02-05T20:33:33.598Z,10.10
2024-02-05T20:36:01.586Z,10.06
2024-02-05T20:38:29.716Z,10.09
2024-02-05T20:40:57.781Z,10.06
2024-02-05T20:43:25.594Z,10.05
2024-02-05T20:45:53.429Z,10.03
2024-02-05T20:48:21.709Z,10.02
2024-02-05T20:50:51.186Z,10.05
2024-02-05T20:53:21.698Z,10.04
2024-02-05T20:55:49.585Z,10.05
2024-02-05T20:58:20.224Z,10.03
2024-02-05T21:00:51.443Z,10.05
2024-02-05T21:03:19.413Z,10.05
2024-02-05T21:05:47.363Z,10.06
2024-02-05T21:08:16.631Z,10.01
2024-02-05T21:10:45.057Z,10.06
2024-02-05T21:13:13.092Z,10.02
2024-02-05T21:15:41.793Z,10.03
2024-02-05T21:18:12.382Z,10.02
2024-02-05T21:20:40.934Z,10.05
2024-02-05T21:23:08.888Z,10.02
2024-02-05T21:25:38.425Z,10.01
2024-02-05T21:28:06.707Z,10.02
2024-02-05T21:30:35.892Z,10.05
2024-02-05T21:33:02.889Z,10.03
2024-02-05T21:35:30.701Z,10.05
2024-02-05T21:37:58.544Z,10.07
2024-02-05T21:40:26.478Z,10.09
2024-02-05T21:42:55.676Z,10.10
2024-02-05T21:45:23.576Z,10.09
2024-02-05T21:47:51.376Z,10.12
2024-02-05T21:50:19.552Z,10.13
2024-02-05T21:52:47.490Z,10.14
2024-02-05T21:55:16.126Z,10.16
2024-02-05T21:57:43.849Z,10.14
2024-02-05T22:00:13.972Z,10.16
2024-02-05T22:02:41.764Z,10.16
2024-02-05T22:05:10.154Z,10.16
2024-02-05T22:07:38.139Z,10.18
2024-02-05T22:10:07.048Z,10.18
2024-02-05T22:12:34.922Z,10.18
2024-02-05T22:15:04.715Z,10.19
2024-02-05T22:17:34.786Z,10.22
2024-02-05T22:20:02.720Z,10.17
2024-02-05T22:22:30.637Z,10.23
2024-02-05T22:24:58.518Z,10.22
2024-02-05T22:27:26.307Z,10.23
2024-02-05T22:29:54.056Z,10.23
2024-02-05T22:32:21.812Z,10.25
2024-02-05T22:34:51.116Z,10.25
2024-02-05T22:37:18.991Z,10.25
2024-02-05T22:39:46.802Z,10.26
2024-02-05T22:42:14.631Z,10.27
2024-02-05T22:44:42.466Z,10.28
2024-02-05T22:47:10.374Z,10.30
2024-02-05T22:49:38.667Z,10.31
2024-02-05T22:52:12.304Z,10.29
2024-02-05T22:54:40.224Z,10.28
2024-02-05T22:57:08.078Z,10.28
2024-02-05T22:59:35.907Z,10.27
2024-02-05T23:02:03.759Z,10.28
2024-02-05T23:04:32.017Z,10.26
2024-02-05T23:06:59.996Z,10.27
2024-02-05T23:09:29.202Z,10.27
2024-02-05T23:11:56.995Z,10.27
2024-02-05T23:14:25.443Z,10.28
2024-02-05T23:16:53.443Z,10.30
2024-02-05T23:19:21.658Z,10.29
2024-02-05T23:21:49.602Z,10.29
2024-02-05T23:24:17.475Z,10.28
2024-02-05T23:26:46.701Z,10.30
2024-02-05T23:29:14.576Z,10.30
2024-02-05T23:31:42.482Z,10.28
2024-02-05T23:34:10.524Z,10.27
2024-02-05T23:36:38.381Z,10.29
2024-02-05T23:39:06.193Z,10.29
2024-02-05T23:41:34.035Z,10.28
2024-02-05T23:44:03.250Z,10.32
2024-02-05T23:46:31.126Z,10.32
2024-02-05T23:49:01.467Z,10.33
2024-02-05T23:51:29.819Z,10.37
2024-02-05T23:53:57.632Z,10.38
2024-02-05T23:56:25.458Z,10.31
2024-02-05T23:58:53.427Z,10.35
